sensor_id;sensor_type;location;lat;lon;timestamp;pressure;altitude;pressure_sealevel;temperature;humidity
59272;BME280;45043;51.068;7.026;2022-08-01T00:00:17;100477.75;;;17.58;61.87
59272;BME280;45043;51.068;7.026;2022-08-01T00:03:18;100471.47;;;17.53;62.40
59272;BME280;45043;51.068;7.026;2022-08-01T00:06:19;100474.41;;;17.51;62.28
59272;BME280;45043;51.068;7.026;2022-08-01T00:09:19;100474.41;;;17.51;62.33
59272;BME280;45043;51.068;7.026;2022-08-01T00:12:20;100472.53;;;17.52;62.29
59272;BME280;45043;51.068;7.026;2022-08-01T00:15:23;100472.84;;;17.55;62.65
59272;BME280;45043;51.068;7.026;2022-08-01T00:18:24;100472.84;;;17.55;62.81
59272;BME280;45043;51.068;7.026;2022-08-01T00:21:34;100467.22;;;17.57;62.39
59272;BME280;45043;51.068;7.026;2022-08-01T00:24:38;100468.78;;;17.53;63.04
59272;BME280;45043;51.068;7.026;2022-08-01T00:27:42;100472.06;;;17.55;62.68
59272;BME280;45043;51.068;7.026;2022-08-01T00:30:45;100478.78;;;17.57;62.39
59272;BME280;45043;51.068;7.026;2022-08-01T00:34:08;100469.59;;;17.53;62.90
59272;BME280;45043;51.068;7.026;2022-08-01T00:40:57;100463.41;;;17.53;63.18
59272;BME280;45043;51.068;7.026;2022-08-01T00:44:07;100466.81;;;17.48;63.12
59272;BME280;45043;51.068;7.026;2022-08-01T00:47:11;100465.50;;;17.51;62.84
59272;BME280;45043;51.068;7.026;2022-08-01T00:50:15;100462.00;;;17.50;62.99
59272;BME280;45043;51.068;7.026;2022-08-01T00:53:44;100472.81;;;17.38;63.30
59272;BME280;45043;51.068;7.026;2022-08-01T00:57:42;100470.06;;;17.33;63.35
59272;BME280;45043;51.068;7.026;2022-08-01T01:01:21;100469.94;;;17.28;63.21
59272;BME280;45043;51.068;7.026;2022-08-01T01:04:40;100468.19;;;17.34;62.90
59272;BME280;45043;51.068;7.026;2022-08-01T01:12:27;100466.13;;;17.24;62.74
59272;BME280;45043;51.068;7.026;2022-08-01T01:16:10;100471.50;;;17.24;62.34
59272;BME280;45043;51.068;7.026;2022-08-01T01:19:30;100471.25;;;17.26;62.77
59272;BME280;45043;51.068;7.026;2022-08-01T01:23:57;100473.63;;;17.22;62.94
59272;BME280;45043;51.068;7.026;2022-08-01T01:27:18;100473.84;;;17.20;62.87
59272;BME280;45043;51.068;7.026;2022-08-01T01:34:35;100471.97;;;17.21;62.89
59272;BME280;45043;51.068;7.026;2022-08-01T01:38:42;100479.56;;;17.12;62.68
59272;BME280;45043;51.068;7.026;2022-08-01T01:41:46;100480.84;;;17.21;62.65
59272;BME280;45043;51.068;7.026;2022-08-01T01:44:48;100487.03;;;17.22;62.99
59272;BME280;45043;51.068;7.026;2022-08-01T01:47:53;100485.38;;;17.21;62.60
59272;BME280;45043;51.068;7.026;2022-08-01T01:50:58;100477.69;;;17.13;63.37
59272;BME280;45043;51.068;7.026;2022-08-01T01:54:30;100479.69;;;17.06;62.78
59272;BME280;45043;51.068;7.026;2022-08-01T01:57:35;100486.94;;;17.17;62.69
59272;BME280;45043;51.068;7.026;2022-08-01T02:00:39;100486.22;;;17.21;62.80
59272;BME280;45043;51.068;7.026;2022-08-01T02:03:41;100482.41;;;17.17;63.12
59272;BME280;45043;51.068;7.026;2022-08-01T02:06:45;100475.97;;;17.18;62.90
59272;BME280;45043;51.068;7.026;2022-08-01T02:09:47;100473.84;;;17.20;62.98
59272;BME280;45043;51.068;7.026;2022-08-01T02:12:49;100481.56;;;17.17;62.16
59272;BME280;45043;51.068;7.026;2022-08-01T02:15:50;100483.22;;;17.18;62.63
59272;BME280;45043;51.068;7.026;2022-08-01T02:18:51;100473.50;;;17.17;62.54
59272;BME280;45043;51.068;7.026;2022-08-01T02:21:57;100470.94;;;17.22;62.52
59272;BME280;45043;51.068;7.026;2022-08-01T02:25:22;100467.09;;;17.18;62.33
59272;BME280;45043;51.068;7.026;2022-08-01T02:28:33;100472.47;;;17.18;62.50
59272;BME280;45043;51.068;7.026;2022-08-01T02:31:39;100474.16;;;17.24;62.10
59272;BME280;45043;51.068;7.026;2022-08-01T02:34:44;100474.44;;;17.22;62.16
59272;BME280;45043;51.068;7.026;2022-08-01T02:37:48;100467.53;;;17.27;62.17
59272;BME280;45043;51.068;7.026;2022-08-01T02:40:57;100466.72;;;17.26;61.94
59272;BME280;45043;51.068;7.026;2022-08-01T02:44:03;100466.72;;;17.26;62.55
59272;BME280;45043;51.068;7.026;2022-08-01T02:47:06;100462.41;;;17.25;62.61
59272;BME280;45043;51.068;7.026;2022-08-01T02:50:08;100466.44;;;17.28;61.86
59272;BME280;45043;51.068;7.026;2022-08-01T02:53:12;100465.16;;;17.30;62.04
59272;BME280;45043;51.068;7.026;2022-08-01T02:56:14;100464.03;;;17.26;62.04
59272;BME280;45043;51.068;7.026;2022-08-01T02:59:18;100456.03;;;17.31;62.28
59272;BME280;45043;51.068;7.026;2022-08-01T03:02:20;100456.63;;;17.33;61.73
59272;BME280;45043;51.068;7.026;2022-08-01T03:05:24;100462.97;;;17.27;62.18
59272;BME280;45043;51.068;7.026;2022-08-01T03:08:25;100464.50;;;17.23;62.11
59272;BME280;45043;51.068;7.026;2022-08-01T03:11:30;100468.25;;;17.22;62.68
59272;BME280;45043;51.068;7.026;2022-08-01T03:14:35;100470.34;;;17.20;62.22
59272;BME280;45043;51.068;7.026;2022-08-01T03:17:37;100475.72;;;17.20;62.50
59272;BME280;45043;51.068;7.026;2022-08-01T03:20:42;100468.84;;;17.12;62.65
59272;BME280;45043;51.068;7.026;2022-08-01T03:23:44;100475.25;;;17.11;62.52
59272;BME280;45043;51.068;7.026;2022-08-01T03:26:46;100478.31;;;17.15;62.93
59272;BME280;45043;51.068;7.026;2022-08-01T03:29:51;100475.00;;;17.13;62.36
59272;BME280;45043;51.068;7.026;2022-08-01T03:32:55;100473.63;;;17.10;62.34
59272;BME280;45043;51.068;7.026;2022-08-01T03:36:00;100472.94;;;17.15;62.51
59272;BME280;45043;51.068;7.026;2022-08-01T03:39:03;100470.81;;;17.17;62.72
59272;BME280;45043;51.068;7.026;2022-08-01T03:42:11;100478.75;;;17.12;62.63
59272;BME280;45043;51.068;7.026;2022-08-01T03:45:25;100479.22;;;17.09;62.41
59272;BME280;45043;51.068;7.026;2022-08-01T03:48:28;100483.06;;;17.13;62.36
59272;BME280;45043;51.068;7.026;2022-08-01T03:51:32;100482.25;;;17.12;62.76
59272;BME280;45043;51.068;7.026;2022-08-01T03:54:37;100486.81;;;17.12;62.60
59272;BME280;45043;51.068;7.026;2022-08-01T03:57:42;100476.69;;;17.14;62.61
59272;BME280;45043;51.068;7.026;2022-08-01T04:00:45;100478.75;;;17.12;62.97
59272;BME280;45043;51.068;7.026;2022-08-01T04:03:46;100484.50;;;17.15;62.79
59272;BME280;45043;51.068;7.026;2022-08-01T04:06:47;100486.94;;;17.17;62.49
59272;BME280;45043;51.068;7.026;2022-08-01T04:09:51;100472.56;;;17.11;62.95
59272;BME280;45043;51.068;7.026;2022-08-01T04:12:52;100467.22;;;17.11;62.81
59272;BME280;45043;51.068;7.026;2022-08-01T04:15:52;100480.75;;;17.16;62.77
59272;BME280;45043;51.068;7.026;2022-08-01T04:18:53;100478.31;;;17.15;63.04
59272;BME280;45043;51.068;7.026;2022-08-01T04:21:54;100477.25;;;17.16;63.17
59272;BME280;45043;51.068;7.026;2022-08-01T04:24:57;100486.44;;;17.20;63.16
59272;BME280;45043;51.068;7.026;2022-08-01T04:28:01;100484.81;;;17.19;63.21
59272;BME280;45043;51.068;7.026;2022-08-01T04:31:08;100482.16;;;17.19;63.04
59272;BME280;45043;51.068;7.026;2022-08-01T04:34:16;100488.91;;;17.21;62.96
59272;BME280;45043;51.068;7.026;2022-08-01T04:37:18;100484.34;;;17.22;62.79
59272;BME280;45043;51.068;7.026;2022-08-01T04:40:20;100492.16;;;17.23;63.01
59272;BME280;45043;51.068;7.026;2022-08-01T04:43:22;100490.88;;;17.26;63.06
59272;BME280;45043;51.068;7.026;2022-08-01T04:46:23;100496.25;;;17.26;63.19
59272;BME280;45043;51.068;7.026;2022-08-01T04:49:24;100502.91;;;17.23;63.04
59272;BME280;45043;51.068;7.026;2022-08-01T04:52:33;100500.94;;;17.19;63.26
59272;BME280;45043;51.068;7.026;2022-08-01T04:55:33;100494.97;;;17.17;63.61
59272;BME280;45043;51.068;7.026;2022-08-01T04:58:37;100510.22;;;17.28;63.10
59272;BME280;45043;51.068;7.026;2022-08-01T05:01:37;100515.59;;;17.28;63.22
59272;BME280;45043;51.068;7.026;2022-08-01T05:04:39;100522.13;;;17.32;62.98
59272;BME280;45043;51.068;7.026;2022-08-01T05:07:43;100505.69;;;17.29;62.98
59272;BME280;45043;51.068;7.026;2022-08-01T05:10:43;100514.72;;;17.39;62.92
59272;BME280;45043;51.068;7.026;2022-08-01T05:13:48;100518.00;;;17.41;62.66
59272;BME280;45043;51.068;7.026;2022-08-01T05:16:48;100519.72;;;17.48;62.94
59272;BME280;45043;51.068;7.026;2022-08-01T05:19:52;100517.13;;;17.53;62.69
59272;BME280;45043;51.068;7.026;2022-08-01T05:22:53;100518.25;;;17.57;62.71
59272;BME280;45043;51.068;7.026;2022-08-01T05:25:57;100522.56;;;17.58;62.69
59272;BME280;45043;51.068;7.026;2022-08-01T05:29:02;100527.38;;;17.56;62.31
59272;BME280;45043;51.068;7.026;2022-08-01T05:32:02;100526.81;;;17.54;62.75
59272;BME280;45043;51.068;7.026;2022-08-01T05:35:04;100530.63;;;17.58;62.55
59272;BME280;45043;51.068;7.026;2022-08-01T05:38:08;100530.63;;;17.58;62.36
59272;BME280;45043;51.068;7.026;2022-08-01T05:41:14;100536.00;;;17.58;62.21
59272;BME280;45043;51.068;7.026;2022-08-01T05:44:18;100538.47;;;17.59;62.69
59272;BME280;45043;51.068;7.026;2022-08-01T05:47:21;100541.38;;;17.58;62.44
59272;BME280;45043;51.068;7.026;2022-08-01T05:50:22;100547.09;;;17.61;62.50
59272;BME280;45043;51.068;7.026;2022-08-01T05:53:22;100546.59;;;17.64;62.18
59272;BME280;45043;51.068;7.026;2022-08-01T05:56:23;100542.38;;;17.68;62.14
59272;BME280;45043;51.068;7.026;2022-08-01T05:59:29;100536.03;;;17.75;61.74
59272;BME280;45043;51.068;7.026;2022-08-01T06:03:02;100535.72;;;17.71;61.63
59272;BME280;45043;51.068;7.026;2022-08-01T06:06:23;100545.72;;;17.76;61.51
59272;BME280;45043;51.068;7.026;2022-08-01T06:09:29;100537.09;;;17.90;61.60
59272;BME280;45043;51.068;7.026;2022-08-01T06:12:55;100539.78;;;17.90;61.42
59272;BME280;45043;51.068;7.026;2022-08-01T06:16:23;100536.28;;;17.90;61.26
59272;BME280;45043;51.068;7.026;2022-08-01T06:19:26;100539.03;;;18.07;60.90
59272;BME280;45043;51.068;7.026;2022-08-01T06:22:33;100537.53;;;18.16;61.07
59272;BME280;45043;51.068;7.026;2022-08-01T06:25:42;100538.19;;;18.23;60.79
59272;BME280;45043;51.068;7.026;2022-08-01T06:28:42;100543.72;;;18.33;60.17
59272;BME280;45043;51.068;7.026;2022-08-01T06:31:43;100539.50;;;18.37;60.19
59272;BME280;45043;51.068;7.026;2022-08-01T06:34:43;100541.59;;;18.35;60.10
59272;BME280;45043;51.068;7.026;2022-08-01T06:37:46;100552.34;;;18.35;60.28
59272;BME280;45043;51.068;7.026;2022-08-01T06:40:47;100547.22;;;18.34;60.23
59272;BME280;45043;51.068;7.026;2022-08-01T06:43:50;100540.31;;;18.38;60.11
59272;BME280;45043;51.068;7.026;2022-08-01T06:46:51;100547.13;;;18.46;59.35
59272;BME280;45043;51.068;7.026;2022-08-01T06:49:51;100548.25;;;18.50;59.48
59272;BME280;45043;51.068;7.026;2022-08-01T06:52:51;100528.78;;;18.42;58.70
59272;BME280;45043;51.068;7.026;2022-08-01T06:55:52;100533.75;;;18.51;57.91
59272;BME280;45043;51.068;7.026;2022-08-01T06:58:52;100529.63;;;18.65;57.58
59272;BME280;45043;51.068;7.026;2022-08-01T07:01:53;100545.97;;;18.75;56.99
59272;BME280;45043;51.068;7.026;2022-08-01T07:04:53;100530.78;;;18.69;57.43
59272;BME280;45043;51.068;7.026;2022-08-01T07:07:54;100547.34;;;18.78;57.37
59272;BME280;45043;51.068;7.026;2022-08-01T07:10:54;100535.81;;;18.82;57.81
59272;BME280;45043;51.068;7.026;2022-08-01T07:13:55;100533.72;;;18.84;56.88
59272;BME280;45043;51.068;7.026;2022-08-01T07:16:57;100542.38;;;18.91;57.28
59272;BME280;45043;51.068;7.026;2022-08-01T07:19:57;100538.56;;;18.87;57.15
59272;BME280;45043;51.068;7.026;2022-08-01T07:22:57;100533.19;;;18.87;57.24
59272;BME280;45043;51.068;7.026;2022-08-01T07:25:58;100538.66;;;18.93;56.72
59272;BME280;45043;51.068;7.026;2022-08-01T07:28:59;100543.75;;;18.94;56.29
59272;BME280;45043;51.068;7.026;2022-08-01T07:32:00;100538.97;;;18.96;56.33
59272;BME280;45043;51.068;7.026;2022-08-01T07:35:01;100545.16;;;18.97;55.93
59272;BME280;45043;51.068;7.026;2022-08-01T07:38:02;100541.66;;;18.96;56.28
59272;BME280;45043;51.068;7.026;2022-08-01T07:41:03;100539.31;;;19.05;56.17
59272;BME280;45043;51.068;7.026;2022-08-01T07:44:03;100550.44;;;19.13;55.48
59272;BME280;45043;51.068;7.026;2022-08-01T07:47:05;100557.84;;;19.23;55.06
59272;BME280;45043;51.068;7.026;2022-08-01T07:50:06;100565.34;;;19.21;55.14
59272;BME280;45043;51.068;7.026;2022-08-01T07:53:07;100552.50;;;19.28;55.50
59272;BME280;45043;51.068;7.026;2022-08-01T07:56:07;100552.63;;;19.38;54.70
59272;BME280;45043;51.068;7.026;2022-08-01T07:59:08;100559.00;;;19.54;54.12
59272;BME280;45043;51.068;7.026;2022-08-01T08:02:08;100565.81;;;19.62;53.79
59272;BME280;45043;51.068;7.026;2022-08-01T08:05:09;100559.41;;;19.68;53.94
59272;BME280;45043;51.068;7.026;2022-08-01T08:08:10;100564.81;;;19.68;53.89
59272;BME280;45043;51.068;7.026;2022-08-01T08:11:14;100567.00;;;19.71;53.48
59272;BME280;45043;51.068;7.026;2022-08-01T08:14:16;100562.03;;;19.90;53.09
59272;BME280;45043;51.068;7.026;2022-08-01T08:17:17;100574.84;;;20.05;52.41
59272;BME280;45043;51.068;7.026;2022-08-01T08:20:17;100562.88;;;20.23;52.19
59272;BME280;45043;51.068;7.026;2022-08-01T08:23:20;100554.56;;;20.29;51.09
59272;BME280;45043;51.068;7.026;2022-08-01T08:26:40;100572.44;;;20.41;50.17
59272;BME280;45043;51.068;7.026;2022-08-01T08:29:41;100567.78;;;20.31;50.25
59272;BME280;45043;51.068;7.026;2022-08-01T08:32:41;100569.09;;;20.28;50.19
59272;BME280;45043;51.068;7.026;2022-08-01T08:35:42;100558.56;;;20.22;49.99
59272;BME280;45043;51.068;7.026;2022-08-01T08:38:43;100574.66;;;20.12;50.01
59272;BME280;45043;51.068;7.026;2022-08-01T08:41:43;100572.72;;;20.07;50.79
59272;BME280;45043;51.068;7.026;2022-08-01T08:44:44;100585.53;;;20.22;50.11
59272;BME280;45043;51.068;7.026;2022-08-01T08:47:45;100580.16;;;20.27;50.28
59272;BME280;45043;51.068;7.026;2022-08-01T08:50:49;100586.66;;;20.26;50.85
59272;BME280;45043;51.068;7.026;2022-08-01T08:53:53;100585.28;;;20.28;50.24
59272;BME280;45043;51.068;7.026;2022-08-01T08:56:55;100589.66;;;20.34;50.22
59272;BME280;45043;51.068;7.026;2022-08-01T08:59:56;100588.03;;;20.33;49.84
59272;BME280;45043;51.068;7.026;2022-08-01T09:02:57;100590.75;;;20.33;49.81
59272;BME280;45043;51.068;7.026;2022-08-01T09:05:58;100584.28;;;20.40;48.99
59272;BME280;45043;51.068;7.026;2022-08-01T09:08:59;100583.53;;;20.44;49.50
59272;BME280;45043;51.068;7.026;2022-08-01T09:12:00;100592.75;;;20.53;49.18
59272;BME280;45043;51.068;7.026;2022-08-01T09:15:00;100591.97;;;20.58;48.58
59272;BME280;45043;51.068;7.026;2022-08-01T09:18:01;100593.63;;;20.64;48.06
59272;BME280;45043;51.068;7.026;2022-08-01T09:24:17;100596.06;;;20.66;48.19
59272;BME280;45043;51.068;7.026;2022-08-01T09:27:20;100602.53;;;20.65;47.82
59272;BME280;45043;51.068;7.026;2022-08-01T09:30:23;100608.22;;;20.63;47.97
59272;BME280;45043;51.068;7.026;2022-08-01T09:33:24;100599.84;;;20.65;47.83
59272;BME280;45043;51.068;7.026;2022-08-01T09:36:26;100596.91;;;20.66;47.98
59272;BME280;45043;51.068;7.026;2022-08-01T09:39:29;100596.44;;;20.79;48.37
59272;BME280;45043;51.068;7.026;2022-08-01T09:42:30;100599.47;;;20.88;47.88
59272;BME280;45043;51.068;7.026;2022-08-01T09:45:36;100594.69;;;21.05;46.78
59272;BME280;45043;51.068;7.026;2022-08-01T09:48:42;100591.75;;;21.17;46.79
59272;BME280;45043;51.068;7.026;2022-08-01T09:51:58;100597.78;;;21.40;46.79
59272;BME280;45043;51.068;7.026;2022-08-01T09:55:02;100601.06;;;21.47;46.04
59272;BME280;45043;51.068;7.026;2022-08-01T09:58:04;100606.47;;;21.47;45.82
59272;BME280;45043;51.068;7.026;2022-08-01T10:01:11;100600.47;;;21.40;46.09
59272;BME280;45043;51.068;7.026;2022-08-01T10:04:15;100598.34;;;21.42;46.01
59272;BME280;45043;51.068;7.026;2022-08-01T10:07:16;100598.06;;;21.38;45.97
59272;BME280;45043;51.068;7.026;2022-08-01T10:10:20;100601.84;;;21.42;45.80
59272;BME280;45043;51.068;7.026;2022-08-01T10:13:21;100593.75;;;21.42;45.61
59272;BME280;45043;51.068;7.026;2022-08-01T10:16:21;100604.78;;;21.36;45.96
59272;BME280;45043;51.068;7.026;2022-08-01T10:19:25;100591.56;;;21.34;45.91
59272;BME280;45043;51.068;7.026;2022-08-01T10:22:27;100588.56;;;21.36;45.67
59272;BME280;45043;51.068;7.026;2022-08-01T10:25:37;100589.94;;;21.43;45.89
59272;BME280;45043;51.068;7.026;2022-08-01T10:28:40;100590.81;;;21.54;45.12
59272;BME280;45043;51.068;7.026;2022-08-01T10:31:45;100593.56;;;21.64;44.41
59272;BME280;45043;51.068;7.026;2022-08-01T10:34:46;100578.97;;;21.81;44.40
59272;BME280;45043;51.068;7.026;2022-08-01T10:37:47;100590.06;;;21.84;44.25
59272;BME280;45043;51.068;7.026;2022-08-01T10:40:51;100592.53;;;21.96;44.27
59272;BME280;45043;51.068;7.026;2022-08-01T10:43:54;100596.34;;;22.15;43.29
59272;BME280;45043;51.068;7.026;2022-08-01T10:47:10;100589.28;;;22.30;43.63
59272;BME280;45043;51.068;7.026;2022-08-01T10:50:25;100574.13;;;22.34;43.41
59272;BME280;45043;51.068;7.026;2022-08-01T10:53:28;100575.19;;;22.43;42.57
59272;BME280;45043;51.068;7.026;2022-08-01T10:56:45;100581.38;;;22.54;41.82
59272;BME280;45043;51.068;7.026;2022-08-01T10:59:50;100565.94;;;22.74;41.87
59272;BME280;45043;51.068;7.026;2022-08-01T11:02:59;100577.28;;;22.77;42.03
59272;BME280;45043;51.068;7.026;2022-08-01T11:06:01;100583.50;;;22.72;41.16
59272;BME280;45043;51.068;7.026;2022-08-01T11:09:15;100574.09;;;22.59;40.74
59272;BME280;45043;51.068;7.026;2022-08-01T11:12:38;100572.75;;;22.52;40.66
59272;BME280;45043;51.068;7.026;2022-08-01T11:15:42;100575.16;;;22.58;41.04
59272;BME280;45043;51.068;7.026;2022-08-01T11:18:50;100568.13;;;22.52;41.93
59272;BME280;45043;51.068;7.026;2022-08-01T11:24:55;100581.19;;;22.30;41.20
59272;BME280;45043;51.068;7.026;2022-08-01T11:34:52;100576.28;;;21.96;41.69
59272;BME280;45043;51.068;7.026;2022-08-01T11:37:53;100571.94;;;22.05;41.13
59272;BME280;45043;51.068;7.026;2022-08-01T11:41:17;100568.72;;;22.08;41.33
59272;BME280;45043;51.068;7.026;2022-08-01T11:44:22;100567.63;;;22.30;40.88
59272;BME280;45043;51.068;7.026;2022-08-01T11:47:51;100562.22;;;22.35;40.74
59272;BME280;45043;51.068;7.026;2022-08-01T11:50:54;100562.72;;;22.47;38.95
59272;BME280;45043;51.068;7.026;2022-08-01T11:53:55;100574.13;;;22.29;39.73
59272;BME280;45043;51.068;7.026;2022-08-01T11:57:00;100569.81;;;22.22;39.85
59272;BME280;45043;51.068;7.026;2022-08-01T12:00:10;100582.53;;;22.27;38.69
59272;BME280;45043;51.068;7.026;2022-08-01T12:03:14;100568.75;;;22.18;38.97
59272;BME280;45043;51.068;7.026;2022-08-01T12:06:26;100562.50;;;22.13;39.19
59272;BME280;45043;51.068;7.026;2022-08-01T12:09:27;100569.25;;;22.05;39.23
59272;BME280;45043;51.068;7.026;2022-08-01T12:12:29;100566.00;;;22.08;39.67
59272;BME280;45043;51.068;7.026;2022-08-01T12:15:31;100559.00;;;22.22;39.78
59272;BME280;45043;51.068;7.026;2022-08-01T12:18:41;100556.22;;;22.43;39.04
59272;BME280;45043;51.068;7.026;2022-08-01T12:21:42;100552.09;;;22.66;39.28
59272;BME280;45043;51.068;7.026;2022-08-01T12:24:43;100556.97;;;22.79;38.97
59272;BME280;45043;51.068;7.026;2022-08-01T12:27:47;100561.47;;;23.09;38.29
59272;BME280;45043;51.068;7.026;2022-08-01T12:30:48;100579.56;;;23.19;37.83
59272;BME280;45043;51.068;7.026;2022-08-01T12:33:49;100573.63;;;23.17;37.90
59272;BME280;45043;51.068;7.026;2022-08-01T12:37:00;100571.78;;;23.02;37.03
59272;BME280;45043;51.068;7.026;2022-08-01T12:40:09;100557.13;;;23.03;36.92
59272;BME280;45043;51.068;7.026;2022-08-01T12:43:15;100558.16;;;23.22;37.26
59272;BME280;45043;51.068;7.026;2022-08-01T12:46:17;100558.63;;;23.35;37.14
59272;BME280;45043;51.068;7.026;2022-08-01T12:49:18;100555.94;;;23.30;36.59
59272;BME280;45043;51.068;7.026;2022-08-01T12:52:18;100557.09;;;23.13;35.61
59272;BME280;45043;51.068;7.026;2022-08-01T12:55:26;100559.81;;;23.18;35.63
59272;BME280;45043;51.068;7.026;2022-08-01T12:58:33;100550.56;;;23.19;36.25
59272;BME280;45043;51.068;7.026;2022-08-01T13:01:34;100551.09;;;23.21;35.14
59272;BME280;45043;51.068;7.026;2022-08-01T13:04:49;100544.34;;;23.14;35.53
59272;BME280;45043;51.068;7.026;2022-08-01T13:07:50;100548.97;;;23.18;35.16
59272;BME280;45043;51.068;7.026;2022-08-01T13:11:00;100559.00;;;23.13;34.64
59272;BME280;45043;51.068;7.026;2022-08-01T13:14:01;100544.69;;;23.07;35.35
59272;BME280;45043;51.068;7.026;2022-08-01T13:17:02;100563.88;;;23.16;36.14
59272;BME280;45043;51.068;7.026;2022-08-01T13:20:03;100565.00;;;23.05;36.64
59272;BME280;45043;51.068;7.026;2022-08-01T13:23:15;100561.00;;;22.87;37.67
59272;BME280;45043;51.068;7.026;2022-08-01T13:26:16;100565.06;;;22.89;38.04
59272;BME280;45043;51.068;7.026;2022-08-01T13:29:18;100554.25;;;22.84;37.98
59272;BME280;45043;51.068;7.026;2022-08-01T13:32:20;100562.94;;;22.76;38.37
59272;BME280;45043;51.068;7.026;2022-08-01T13:35:21;100549.69;;;22.64;38.33
59272;BME280;45043;51.068;7.026;2022-08-01T13:38:22;100547.81;;;22.60;37.10
59272;BME280;45043;51.068;7.026;2022-08-01T13:41:42;100556.97;;;22.79;36.44
59272;BME280;45043;51.068;7.026;2022-08-01T13:44:43;100549.91;;;22.83;36.60
59272;BME280;45043;51.068;7.026;2022-08-01T13:47:46;100556.91;;;22.94;35.05
59272;BME280;45043;51.068;7.026;2022-08-01T13:50:47;100553.03;;;23.16;35.18
59272;BME280;45043;51.068;7.026;2022-08-01T13:53:47;100547.03;;;23.24;34.93
59272;BME280;45043;51.068;7.026;2022-08-01T13:56:47;100544.59;;;23.22;34.03
59272;BME280;45043;51.068;7.026;2022-08-01T13:59:48;100548.63;;;23.25;33.85
59272;BME280;45043;51.068;7.026;2022-08-01T14:02:49;100547.78;;;23.35;34.65
59272;BME280;45043;51.068;7.026;2022-08-01T14:05:49;100545.59;;;23.37;34.21
59272;BME280;45043;51.068;7.026;2022-08-01T14:08:50;100542.34;;;23.40;34.47
59272;BME280;45043;51.068;7.026;2022-08-01T14:11:50;100543.06;;;23.56;34.55
59272;BME280;45043;51.068;7.026;2022-08-01T14:14:51;100558.19;;;23.62;35.31
59272;BME280;45043;51.068;7.026;2022-08-01T14:17:51;100571.63;;;23.33;35.90
59272;BME280;45043;51.068;7.026;2022-08-01T14:20:52;100559.84;;;23.08;37.34
59272;BME280;45043;51.068;7.026;2022-08-01T14:23:52;100561.25;;;22.95;37.39
59272;BME280;45043;51.068;7.026;2022-08-01T14:26:53;100554.81;;;22.81;38.06
59272;BME280;45043;51.068;7.026;2022-08-01T14:29:53;100552.69;;;22.63;38.26
59272;BME280;45043;51.068;7.026;2022-08-01T14:32:57;100550.28;;;22.46;38.80
59272;BME280;45043;51.068;7.026;2022-08-01T14:36:00;100553.25;;;22.49;38.96
59272;BME280;45043;51.068;7.026;2022-08-01T14:39:01;100555.13;;;22.54;37.97
59272;BME280;45043;51.068;7.026;2022-08-01T14:42:01;100549.75;;;22.39;38.49
59272;BME280;45043;51.068;7.026;2022-08-01T14:45:03;100542.16;;;22.46;37.15
59272;BME280;45043;51.068;7.026;2022-08-01T14:48:08;100563.53;;;22.42;37.70
59272;BME280;45043;51.068;7.026;2022-08-01T14:51:09;100548.91;;;22.43;38.69
59272;BME280;45043;51.068;7.026;2022-08-01T14:54:09;100545.44;;;22.38;39.13
59272;BME280;45043;51.068;7.026;2022-08-01T14:57:10;100561.66;;;22.38;38.83
59272;BME280;45043;51.068;7.026;2022-08-01T15:00:10;100546.78;;;22.30;39.97
59272;BME280;45043;51.068;7.026;2022-08-01T15:03:14;100556.28;;;22.22;39.38
59272;BME280;45043;51.068;7.026;2022-08-01T15:06:14;100562.78;;;22.11;39.36
59272;BME280;45043;51.068;7.026;2022-08-01T15:09:15;100563.28;;;22.08;39.58
59272;BME280;45043;51.068;7.026;2022-08-01T15:12:18;100563.28;;;21.98;39.70
59272;BME280;45043;51.068;7.026;2022-08-01T15:15:18;100573.56;;;21.91;40.39
59272;BME280;45043;51.068;7.026;2022-08-01T15:18:19;100566.00;;;21.77;40.73
59272;BME280;45043;51.068;7.026;2022-08-01T15:21:22;100566.25;;;21.76;40.93
59272;BME280;45043;51.068;7.026;2022-08-01T15:24:22;100581.41;;;21.82;40.22
59272;BME280;45043;51.068;7.026;2022-08-01T15:27:24;100571.41;;;21.93;40.40
59272;BME280;45043;51.068;7.026;2022-08-01T15:30:27;100584.94;;;21.98;40.85
59272;BME280;45043;51.068;7.026;2022-08-01T15:33:28;100584.94;;;21.93;41.02
59272;BME280;45043;51.068;7.026;2022-08-01T15:36:28;100584.66;;;21.79;41.95
59272;BME280;45043;51.068;7.026;2022-08-01T15:39:31;100590.06;;;21.74;42.26
59272;BME280;45043;51.068;7.026;2022-08-01T15:42:33;100584.91;;;21.72;42.69
59272;BME280;45043;51.068;7.026;2022-08-01T15:45:35;100584.66;;;21.74;42.21
59272;BME280;45043;51.068;7.026;2022-08-01T15:48:35;100584.34;;;21.60;42.21
59272;BME280;45043;51.068;7.026;2022-08-01T15:51:35;100597.63;;;21.67;42.59
59272;BME280;45043;51.068;7.026;2022-08-01T15:54:36;100595.16;;;21.60;42.07
59272;BME280;45043;51.068;7.026;2022-08-01T15:57:37;100584.34;;;21.60;42.22
59272;BME280;45043;51.068;7.026;2022-08-01T16:00:38;100585.72;;;21.68;42.57
59272;BME280;45043;51.068;7.026;2022-08-01T16:03:38;100591.13;;;21.83;42.37
59272;BME280;45043;51.068;7.026;2022-08-01T16:06:39;100600.06;;;21.78;41.55
59272;BME280;45043;51.068;7.026;2022-08-01T16:09:39;100582.19;;;21.72;41.43
59272;BME280;45043;51.068;7.026;2022-08-01T16:12:40;100581.94;;;21.74;41.87
59272;BME280;45043;51.068;7.026;2022-08-01T16:15:40;100593.00;;;21.72;41.35
59272;BME280;45043;51.068;7.026;2022-08-01T16:18:41;100591.41;;;21.71;40.97
59272;BME280;45043;51.068;7.026;2022-08-01T16:21:42;100587.06;;;21.75;40.91
59272;BME280;45043;51.068;7.026;2022-08-01T16:24:42;100576.25;;;21.75;40.13
59272;BME280;45043;51.068;7.026;2022-08-01T16:27:42;100577.91;;;21.87;41.23
59272;BME280;45043;51.068;7.026;2022-08-01T16:30:43;100584.09;;;21.87;40.76